Time;durP1;ratioP1;P1;durP2;ratioP2;P2;SDS_P1;SDS_P2;PMS_P1;PMS_P2;Temp;Humidity;BMP_temperature;BMP_pressure;BME280_temperature;BME280_humidity;BME280_pressure;Samples;Min_cycle;Max_cycle;Signal;HPM_P1;HPM_P2
2022/01/10 00:00:06;;;;;;;13.27;7.77;;;;;;;2.24;100.00;98058.78;4991696;28;20190;-56
2022/01/10 00:02:41;;;;;;;12.77;7.50;;;;;;;2.18;100.00;98065.16;4996462;28;20216;-57
2022/01/10 00:05:09;;;;;;;12.30;7.10;;;;;;;2.16;100.00;98061.88;4997732;28;20237;-58
2022/01/10 00:07:36;;;;;;;13.80;7.10;;;;;;;2.18;100.00;98066.94;4994164;28;20217;-59
2022/01/10 00:10:03;;;;;;;11.10;7.00;;;;;;;2.21;100.00;98066.72;4988704;28;20208;-57
2022/01/10 00:12:30;;;;;;;16.57;6.90;;;;;;;2.22;100.00;98071.75;4986965;28;20237;-58
2022/01/10 00:14:57;;;;;;;10.87;5.73;;;;;;;2.27;100.00;98071.41;4984856;28;20221;-57
2022/01/10 00:17:24;;;;;;;10.53;6.27;;;;;;;2.27;100.00;98074.00;4983358;28;20245;-57
2022/01/10 00:19:52;;;;;;;11.73;5.53;;;;;;;2.29;100.00;98082.44;4982651;28;20224;-57
2022/01/10 00:22:20;;;;;;;11.73;6.43;;;;;;;2.32;100.00;98079.63;4976961;28;20268;-56
2022/01/10 00:24:46;;;;;;;16.17;6.00;;;;;;;2.35;100.00;98094.88;4998273;28;20205;-58
2022/01/10 00:27:13;;;;;;;10.40;6.23;;;;;;;2.32;100.00;98089.94;4994880;28;20660;-58
2022/01/10 00:29:40;;;;;;;8.50;5.27;;;;;;;2.39;100.00;98092.06;4992149;28;20303;-58
2022/01/10 00:32:07;;;;;;;10.57;6.00;;;;;;;2.37;100.00;98094.75;4994173;28;20196;-57
2022/01/10 00:34:36;;;;;;;13.17;5.77;;;;;;;2.42;100.00;98089.28;4994178;28;20193;-58
2022/01/10 00:37:04;;;;;;;10.70;5.90;;;;;;;2.46;100.00;98082.97;4992945;28;20847;-58
2022/01/10 00:39:32;;;;;;;10.53;5.43;;;;;;;2.51;100.00;98091.97;4991522;28;20232;-58
2022/01/10 00:41:59;;;;;;;13.17;5.80;;;;;;;2.52;100.00;98097.97;4997172;28;20309;-56
2022/01/10 00:44:27;;;;;;;7.77;4.40;;;;;;;2.49;100.00;98098.19;4995523;28;20221;-58
2022/01/10 00:46:54;;;;;;;11.40;4.90;;;;;;;2.51;100.00;98102.28;4993989;28;20280;-58
2022/01/10 00:49:21;;;;;;;12.60;5.10;;;;;;;2.55;100.00;98110.63;4989391;28;20272;-58
2022/01/10 00:51:48;;;;;;;10.33;4.80;;;;;;;2.58;100.00;98109.56;4998754;28;20207;-58
2022/01/10 00:54:16;;;;;;;9.82;4.95;;;;;;;2.61;100.00;98117.91;5005126;28;20521;-58
2022/01/10 00:56:43;;;;;;;8.27;5.13;;;;;;;2.64;100.00;98122.84;5013241;28;20727;-58
2022/01/10 00:59:10;;;;;;;10.30;5.47;;;;;;;2.65;100.00;98123.66;5013227;28;20220;-58
2022/01/10 01:01:36;;;;;;;8.63;4.57;;;;;;;2.63;100.00;98122.94;4984566;28;20211;-56
2022/01/10 01:04:04;;;;;;;11.87;5.07;;;;;;;2.71;100.00;98120.63;4989506;28;20194;-58
2022/01/10 01:06:31;;;;;;;11.47;6.70;;;;;;;2.63;100.00;98128.94;4996249;28;20256;-54
2022/01/10 01:09:03;;;;;;;14.80;7.77;;;;;;;2.59;100.00;98131.81;5004921;28;20204;-58
2022/01/10 01:12:09;;;;;;;16.87;8.60;;;;;;;2.55;100.00;98136.38;5011462;28;20193;-57
2022/01/10 01:14:51;;;;;;;15.27;8.20;;;;;;;2.60;100.00;98139.47;5012941;28;20200;-58
2022/01/10 01:17:57;;;;;;;18.60;8.27;;;;;;;2.60;100.00;98146.34;5010863;28;20208;-57
2022/01/10 01:20:43;;;;;;;18.47;9.10;;;;;;;2.59;99.94;98147.28;5012513;28;20182;-58
2022/01/10 01:26:01;;;;;;;17.63;11.05;;;;;;;2.55;100.00;98167.31;5010324;28;20443;-57
2022/01/10 01:28:31;;;;;;;17.90;9.23;;;;;;;2.54;100.00;98165.66;4992763;28;20229;-58
2022/01/10 01:30:58;;;;;;;18.57;9.50;;;;;;;2.53;100.00;98170.91;5003812;28;20528;-57
2022/01/10 01:33:25;;;;;;;15.50;9.07;;;;;;;2.55;100.00;98176.78;5001774;28;20216;-56
2022/01/10 01:35:53;;;;;;;11.33;7.20;;;;;;;2.56;100.00;98181.84;5052992;22;20255;-51
2022/01/10 01:38:20;;;;;;;16.40;7.57;;;;;;;2.56;100.00;98181.00;5030600;28;20196;-53
2022/01/10 01:40:53;;;;;;;13.73;8.20;;;;;;;2.50;100.00;98188.25;5031417;28;20242;-55
2022/01/10 01:43:20;;;;;;;12.53;8.07;;;;;;;2.52;100.00;98195.88;5031956;28;20188;-54
2022/01/10 01:45:50;;;;;;;16.23;7.70;;;;;;;2.55;100.00;98205.13;5027812;28;20212;-55
2022/01/10 01:48:18;;;;;;;12.23;6.93;;;;;;;2.54;100.00;98203.47;5029264;28;20207;-52
2022/01/10 01:50:45;;;;;;;12.20;7.10;;;;;;;2.56;100.00;98206.75;5040399;28;20192;-55
2022/01/10 01:53:12;;;;;;;13.73;7.00;;;;;;;2.57;100.00;98203.25;5029066;28;20688;-55
2022/01/10 01:55:39;;;;;;;15.67;7.60;;;;;;;2.56;100.00;98209.34;5028334;28;20310;-54
2022/01/10 01:58:06;;;;;;;12.60;7.30;;;;;;;2.63;100.00;98220.84;5020863;28;20585;-55
2022/01/10 02:00:33;;;;;;;10.20;6.80;;;;;;;2.59;100.00;98219.44;5021642;28;20192;-55
2022/01/10 02:03:01;;;;;;;11.03;7.07;;;;;;;2.54;100.00;98214.63;5021792;28;20226;-56
2022/01/10 02:05:30;;;;;;;12.30;6.10;;;;;;;2.59;100.00;98220.28;5021651;28;20214;-54
2022/01/10 02:07:57;;;;;;;15.23;7.77;;;;;;;2.60;100.00;98219.34;5022494;28;20188;-54
2022/01/10 02:10:24;;;;;;;13.00;7.50;;;;;;;2.62;99.44;98225.19;5025179;28;20204;-54
2022/01/10 02:12:51;;;;;;;12.90;6.90;;;;;;;2.64;99.89;98225.91;5026016;28;20599;-55
2022/01/10 02:15:31;;;;;;;13.63;6.93;;;;;;;2.68;99.02;98235.97;5021656;28;20214;-54
2022/01/10 02:18:03;;;;;;;14.17;7.07;;;;;;;2.73;99.12;98233.88;5012756;28;20558;-54
2022/01/10 02:20:33;;;;;;;13.70;7.07;;;;;;;2.67;99.09;98237.75;5018399;28;20196;-55
2022/01/10 02:23:00;;;;;;;13.53;7.13;;;;;;;2.65;100.00;98240.41;5023680;28;20250;-55
2022/01/10 02:25:40;;;;;;;14.37;7.40;;;;;;;2.64;99.22;98237.97;5021820;28;20242;-56
2022/01/10 02:28:07;;;;;;;13.23;6.87;;;;;;;2.70;98.58;98236.69;5020866;28;20184;-53
2022/01/10 02:30:34;;;;;;;12.73;7.20;;;;;;;2.69;99.30;98245.34;5018405;28;20212;-53
2022/01/10 02:33:02;;;;;;;13.13;7.03;;;;;;;2.65;99.10;98243.00;5018900;28;20184;-53
2022/01/10 02:35:34;;;;;;;18.27;7.60;;;;;;;2.67;99.70;98250.63;5020278;28;20220;-57
2022/01/10 02:38:04;;;;;;;13.93;8.50;;;;;;;2.66;99.59;98254.13;5023454;28;20192;-56
2022/01/10 02:40:33;;;;;;;14.53;7.00;;;;;;;2.68;98.93;98261.75;5018379;28;20199;-54
2022/01/10 02:43:01;;;;;;;12.47;7.27;;;;;;;2.71;98.36;98256.38;5019028;28;20196;-52
2022/01/10 02:45:28;;;;;;;16.90;8.10;;;;;;;2.66;98.48;98259.28;5018646;28;20685;-54
2022/01/10 02:47:56;;;;;;;13.80;7.63;;;;;;;2.69;99.17;98261.66;5020501;28;20181;-54
2022/01/10 02:50:26;;;;;;;13.10;7.80;;;;;;;2.70;98.52;98263.28;5017956;28;20183;-54
2022/01/10 02:52:54;;;;;;;17.53;7.80;;;;;;;2.68;98.93;98259.16;5020570;28;20534;-52
2022/01/10 02:55:22;;;;;;;13.47;7.83;;;;;;;2.63;98.76;98268.06;5017937;28;20201;-56
2022/01/10 02:57:49;;;;;;;15.30;7.77;;;;;;;2.67;99.54;98266.09;5026263;28;20286;-55
2022/01/10 03:00:19;;;;;;;14.17;7.73;;;;;;;2.60;98.09;98276.03;5020556;28;20192;-54
2022/01/10 03:02:49;;;;;;;15.27;8.43;;;;;;;2.62;98.95;98278.47;5021348;28;20658;-54
2022/01/10 03:05:17;;;;;;;13.03;8.07;;;;;;;2.63;99.04;98283.53;5018656;28;20213;-55
2022/01/10 03:07:44;;;;;;;12.93;7.40;;;;;;;2.62;97.79;98291.38;5019793;28;20192;-53
2022/01/10 03:10:12;;;;;;;14.43;7.97;;;;;;;2.62;98.76;98291.38;5019320;28;20199;-56
2022/01/10 03:12:40;;;;;;;12.80;7.60;;;;;;;2.62;98.22;98289.63;5018872;28;20218;-56
2022/01/10 03:15:09;;;;;;;14.90;7.83;;;;;;;2.58;97.77;98293.34;5017812;28;20303;-53
2022/01/10 03:17:38;;;;;;;12.87;7.50;;;;;;;2.59;98.80;98297.56;5019854;28;20637;-53
2022/01/10 03:20:07;;;;;;;15.57;8.07;;;;;;;2.59;97.98;98304.47;5019192;28;20199;-53
2022/01/10 03:22:34;;;;;;;15.43;8.20;;;;;;;2.57;98.92;98307.16;5020184;28;20189;-54
2022/01/10 03:25:01;;;;;;;12.97;7.83;;;;;;;2.57;98.41;98314.88;5019040;28;20266;-54
2022/01/10 03:27:33;;;;;;;14.07;7.90;;;;;;;2.57;97.53;98312.31;5020295;28;20199;-54
2022/01/10 03:30:06;;;;;;;13.60;7.33;;;;;;;2.47;98.09;98319.84;5018710;28;20200;-56
2022/01/10 03:32:33;;;;;;;15.00;7.80;;;;;;;2.46;98.17;98314.81;5020908;28;20200;-54
2022/01/10 03:35:10;;;;;;;12.93;7.40;;;;;;;2.39;99.11;98322.13;5024145;28;20647;-53
2022/01/10 03:37:37;;;;;;;14.47;7.80;;;;;;;2.38;99.20;98322.25;5030024;28;20188;-55
2022/01/10 03:40:06;;;;;;;15.23;7.23;;;;;;;2.38;99.34;98327.41;5030376;28;20684;-52
2022/01/10 03:42:33;;;;;;;13.77;7.07;;;;;;;2.33;99.96;98322.56;5032825;28;20227;-54
2022/01/10 03:44:59;;;;;;;12.33;7.80;;;;;;;2.29;100.00;98331.41;5033808;28;20208;-54
2022/01/10 03:47:28;;;;;;;13.33;7.17;;;;;;;2.27;100.00;98328.13;5050373;28;20216;-53
2022/01/10 03:49:55;;;;;;;14.83;8.27;;;;;;;2.21;100.00;98327.63;5032969;28;20311;-53
2022/01/10 03:52:22;;;;;;;12.17;7.10;;;;;;;2.27;100.00;98331.53;5033575;28;20279;-54
2022/01/10 03:54:50;;;;;;;11.97;6.80;;;;;;;2.18;100.00;98340.69;5033376;28;20214;-56
2022/01/10 03:57:17;;;;;;;13.80;6.80;;;;;;;2.17;100.00;98336.47;5033323;28;20196;-53
2022/01/10 03:59:44;;;;;;;13.30;6.90;;;;;;;2.12;100.00;98340.31;5034102;28;20355;-56
2022/01/10 04:02:11;;;;;;;11.30;6.67;;;;;;;2.11;100.00;98348.97;5033432;28;20194;-55
2022/01/10 04:04:39;;;;;;;10.83;6.77;;;;;;;2.10;100.00;98350.72;5033286;28;20227;-53
2022/01/10 04:07:07;;;;;;;12.63;6.77;;;;;;;2.09;100.00;98354.22;5033496;28;20215;-55
2022/01/10 04:09:34;;;;;;;11.47;6.37;;;;;;;2.16;100.00;98362.34;5032832;28;20199;-56
2022/01/10 04:12:01;;;;;;;13.07;6.30;;;;;;;2.12;100.00;98363.47;5033368;28;20195;-55
2022/01/10 04:14:29;;;;;;;12.97;6.83;;;;;;;2.06;100.00;98362.16;5031198;28;20208;-55
2022/01/10 04:16:56;;;;;;;13.77;7.17;;;;;;;2.11;100.00;98362.69;5034537;28;20242;-54
2022/01/10 04:19:23;;;;;;;13.80;7.37;;;;;;;2.17;100.00;98369.16;5033100;28;20561;-57
2022/01/10 04:21:51;;;;;;;13.83;6.57;;;;;;;2.17;100.00;98377.69;5033543;28;20214;-54
2022/01/10 04:24:17;;;;;;;12.65;7.03;;;;;;;2.12;100.00;98376.34;5034224;28;20433;-55
2022/01/10 04:26:44;;;;;;;15.67;7.63;;;;;;;2.17;100.00;98382.03;5033505;28;20561;-54
2022/01/10 04:29:15;;;;;;;16.27;7.23;;;;;;;2.15;100.00;98379.53;5032844;28;20192;-57
2022/01/10 04:31:42;;;;;;;12.57;7.10;;;;;;;2.21;100.00;98384.28;5032223;28;20662;-57
2022/01/10 04:34:09;;;;;;;11.93;6.63;;;;;;;2.19;100.00;98388.69;5033937;28;20796;-57
2022/01/10 04:36:36;;;;;;;11.83;6.90;;;;;;;2.18;100.00;98392.22;5032916;28;20196;-57
2022/01/10 04:39:05;;;;;;;11.20;6.40;;;;;;;2.12;100.00;98396.97;5032958;28;20196;-57
2022/01/10 04:41:34;;;;;;;11.53;7.73;;;;;;;2.12;100.00;98395.19;5032422;28;20195;-57
2022/01/10 04:44:01;;;;;;;11.97;7.40;;;;;;;2.08;100.00;98405.81;5032680;28;20216;-55
2022/01/10 04:46:28;;;;;;;13.43;7.47;;;;;;;2.12;100.00;98412.41;5032919;28;20239;-57
2022/01/10 04:48:55;;;;;;;13.90;7.73;;;;;;;2.08;100.00;98416.09;5032750;28;20622;-57
2022/01/10 04:51:23;;;;;;;11.73;7.57;;;;;;;2.09;100.00;98421.16;5031825;28;20658;-57
2022/01/10 04:53:53;;;;;;;14.93;8.30;;;;;;;2.10;100.00;98415.09;5033505;28;20327;-57
2022/01/10 04:56:22;;;;;;;12.23;7.43;;;;;;;2.13;100.00;98429.50;5032563;28;20195;-57
2022/01/10 04:58:53;;;;;;;13.23;8.33;;;;;;;2.13;100.00;98426.94;5032537;28;20200;-57
2022/01/10 05:01:21;;;;;;;15.23;8.40;;;;;;;2.16;100.00;98437.84;5031595;28;20557;-57
2022/01/10 05:03:51;;;;;;;11.63;8.50;;;;;;;2.15;100.00;98433.59;5032330;28;20196;-57
2022/01/10 05:06:18;;;;;;;15.60;8.50;;;;;;;2.17;100.00;98439.47;5032285;28;20271;-57
2022/01/10 05:08:45;;;;;;;13.53;8.67;;;;;;;2.17;100.00;98443.81;5032322;28;20650;-57
2022/01/10 05:11:17;;;;;;;13.27;8.43;;;;;;;2.17;100.00;98447.22;5031685;28;20222;-57
2022/01/10 05:13:45;;;;;;;11.87;8.70;;;;;;;2.20;100.00;98457.31;5032358;28;20192;-57
2022/01/10 05:16:13;;;;;;;11.30;8.40;;;;;;;2.25;100.00;98457.03;5032026;28;20215;-57
2022/01/10 05:18:40;;;;;;;11.93;8.17;;;;;;;2.20;100.00;98459.88;5032173;28;20196;-57
2022/01/10 05:21:08;;;;;;;17.30;10.17;;;;;;;2.24;99.81;98465.66;5031476;28;20680;-57
2022/01/10 05:23:35;;;;;;;15.33;9.53;;;;;;;2.24;100.00;98463.09;5032142;28;20212;-57
2022/01/10 05:26:02;;;;;;;14.13;9.30;;;;;;;2.24;100.00;98462.25;5033176;28;20227;-57
2022/01/10 05:28:29;;;;;;;16.53;9.83;;;;;;;2.18;100.00;98466.06;5031945;28;20728;-56
2022/01/10 05:31:00;;;;;;;14.97;9.60;;;;;;;2.23;100.00;98474.31;5030962;28;20196;-57
2022/01/10 05:33:31;;;;;;;13.20;9.03;;;;;;;2.24;100.00;98469.97;5032098;28;20215;-56
2022/01/10 05:35:59;;;;;;;22.70;10.57;;;;;;;2.25;100.00;98469.91;5031532;28;20258;-56
2022/01/10 05:38:25;;;;;;;14.50;9.23;;;;;;;2.31;100.00;98484.09;5032689;28;20184;-57
2022/01/10 05:40:53;;;;;;;16.67;9.70;;;;;;;2.24;100.00;98486.28;5030787;28;20207;-57
2022/01/10 05:43:20;;;;;;;14.27;10.27;;;;;;;2.22;100.00;98494.09;5031773;28;20272;-57
2022/01/10 05:45:49;;;;;;;18.40;10.37;;;;;;;2.22;100.00;98494.09;5031444;28;20736;-57
2022/01/10 05:48:25;;;;;;;17.07;9.97;;;;;;;2.23;100.00;98505.22;5031633;28;20192;-57
2022/01/10 05:50:56;;;;;;;15.60;10.40;;;;;;;2.21;100.00;98509.66;5030374;28;20600;-57
2022/01/10 05:53:24;;;;;;;15.70;10.60;;;;;;;2.20;100.00;98510.59;5030709;28;20195;-57
2022/01/10 05:55:50;;;;;;;16.55;12.30;;;;;;;2.20;100.00;98510.59;5031428;28;20417;-57
2022/01/10 05:58:19;;;;;;;16.90;11.10;;;;;;;2.24;100.00;98516.34;5031646;28;20196;-57
2022/01/10 06:00:46;;;;;;;17.40;11.33;;;;;;;2.20;100.00;98531.19;5030668;28;20192;-57
2022/01/10 06:03:13;;;;;;;15.20;10.30;;;;;;;2.23;100.00;98536.13;5032108;28;20263;-57
2022/01/10 06:05:48;;;;;;;14.60;9.57;;;;;;;2.26;100.00;98540.25;5030630;28;20214;-57
2022/01/10 06:08:15;;;;;;;17.07;8.97;;;;;;;2.27;100.00;98541.91;5031016;28;20589;-57
2022/01/10 06:10:44;;;;;;;17.77;10.43;;;;;;;2.29;100.00;98552.94;5030301;28;20191;-57
2022/01/10 06:13:21;;;;;;;20.77;12.67;;;;;;;2.27;100.00;98554.78;5031183;28;20287;-57
2022/01/10 06:15:48;;;;;;;20.40;12.37;;;;;;;2.30;100.00;98552.00;5030927;28;20217;-57
2022/01/10 06:18:15;;;;;;;18.40;11.07;;;;;;;2.31;100.00;98562.22;5031315;28;20186;-57
2022/01/10 06:20:42;;;;;;;17.23;10.77;;;;;;;2.32;100.00;98574.19;5030446;28;20577;-56
2022/01/10 06:23:11;;;;;;;15.87;10.50;;;;;;;2.33;100.00;98577.56;5031001;28;20551;-54
2022/01/10 06:25:40;;;;;;;15.70;9.87;;;;;;;2.33;100.00;98587.88;5030781;28;20211;-56
2022/01/10 06:28:08;;;;;;;16.73;10.10;;;;;;;2.32;100.00;98584.47;5030862;28;20208;-55
2022/01/10 06:30:35;;;;;;;12.83;8.90;;;;;;;2.31;100.00;98590.56;5030486;28;20250;-56
2022/01/10 06:33:04;;;;;;;13.20;9.07;;;;;;;2.26;100.00;98594.34;5030904;28;20191;-55
2022/01/10 06:35:31;;;;;;;13.07;8.90;;;;;;;2.26;100.00;98589.19;5029757;28;21110;-57
2022/01/10 06:37:58;;;;;;;18.37;10.77;;;;;;;2.26;100.00;98604.63;5018557;28;20180;-55
2022/01/10 06:40:26;;;;;;;15.47;9.30;;;;;;;2.24;100.00;98611.63;5029830;28;20199;-54
2022/01/10 06:42:53;;;;;;;13.80;9.50;;;;;;;2.18;100.00;98611.09;5031977;28;20188;-55
2022/01/10 06:45:23;;;;;;;14.00;9.63;;;;;;;2.21;100.00;98620.41;5030665;28;20684;-55
2022/01/10 06:47:50;;;;;;;13.87;9.10;;;;;;;2.18;100.00;98620.59;5030506;28;20295;-55
2022/01/10 06:50:17;;;;;;;13.73;9.17;;;;;;;2.18;100.00;98628.31;5029648;28;20617;-56
2022/01/10 06:52:46;;;;;;;12.83;9.77;;;;;;;2.13;100.00;98632.94;5029741;28;20191;-55
2022/01/10 06:55:13;;;;;;;16.60;9.50;;;;;;;2.15;100.00;98638.81;5029507;28;20216;-54
2022/01/10 06:57:43;;;;;;;13.93;8.97;;;;;;;2.12;100.00;98646.72;5029556;28;20661;-56
2022/01/10 07:00:13;;;;;;;12.43;8.70;;;;;;;2.10;100.00;98646.84;5029190;28;20196;-57
2022/01/10 07:02:47;;;;;;;11.13;8.30;;;;;;;2.09;100.00;98657.22;5030487;28;20193;-56
2022/01/10 07:05:14;;;;;;;13.77;8.03;;;;;;;2.04;100.00;98657.53;5030431;28;20628;-56
2022/01/10 07:07:42;;;;;;;14.47;8.43;;;;;;;2.00;100.00;98658.63;5029963;28;20208;-56
2022/01/10 07:10:21;;;;;;;13.77;7.77;;;;;;;2.01;100.00;98668.00;5029826;28;20635;-56
2022/01/10 07:12:49;;;;;;;14.40;8.70;;;;;;;2.02;100.00;98669.66;5030353;28;20291;-54
2022/01/10 07:15:16;;;;;;;14.27;8.93;;;;;;;2.04;100.00;98676.34;5030230;28;20212;-52
2022/01/10 07:17:44;;;;;;;16.33;8.30;;;;;;;2.09;100.00;98682.97;5034060;28;20194;-56
2022/01/10 07:20:13;;;;;;;11.20;8.10;;;;;;;2.02;100.00;98679.97;5033633;28;20202;-56
2022/01/10 07:22:42;;;;;;;13.77;7.77;;;;;;;2.02;100.00;98690.25;5034012;28;20661;-56
2022/01/10 07:25:09;;;;;;;15.90;9.13;;;;;;;2.01;100.00;98697.16;5035430;28;20588;-53
2022/01/10 07:27:36;;;;;;;16.70;10.63;;;;;;;2.04;100.00;98706.44;5035415;28;21019;-55
2022/01/10 07:30:05;;;;;;;19.57;12.37;;;;;;;2.04;100.00;98711.59;5034706;28;20184;-56
2022/01/10 07:32:55;;;;;;;16.20;9.27;;;;;;;1.99;100.00;98718.78;5034723;28;20199;-54
2022/01/10 07:35:41;;;;;;;19.53;11.33;;;;;;;1.98;100.00;98720.50;5034236;28;20770;-55
2022/01/10 07:38:08;;;;;;;21.77;13.07;;;;;;;2.04;100.00;98724.47;5034460;28;20540;-56
2022/01/10 07:40:34;;;;;;;21.27;12.53;;;;;;;2.13;100.00;98730.78;5033565;28;20184;-57
2022/01/10 07:43:01;;;;;;;25.70;13.80;;;;;;;2.12;100.00;98726.56;5034623;28;20194;-54
2022/01/10 07:45:38;;;;;;;19.97;13.27;;;;;;;2.12;100.00;98740.25;5033019;28;20217;-56
2022/01/10 07:48:06;;;;;;;21.37;13.27;;;;;;;2.16;100.00;98741.72;5033785;28;20760;-55
2022/01/10 07:50:33;;;;;;;22.40;14.17;;;;;;;2.22;100.00;98745.69;5013795;28;20331;-55
2022/01/10 07:52:59;;;;;;;17.57;12.87;;;;;;;2.27;100.00;98758.25;5038951;22;20217;-51
2022/01/10 07:55:26;;;;;;;20.53;13.10;;;;;;;2.24;100.00;98766.16;5014094;28;20196;-52
2022/01/10 07:57:53;;;;;;;20.77;13.20;;;;;;;2.29;100.00;98764.13;5007980;28;20215;-53
2022/01/10 08:00:20;;;;;;;22.80;13.57;;;;;;;2.18;100.00;98770.78;5011098;28;20187;-52
2022/01/10 08:02:48;;;;;;;24.70;14.70;;;;;;;2.23;100.00;98773.09;5006615;28;20227;-54
2022/01/10 08:05:15;;;;;;;23.37;13.70;;;;;;;2.25;100.00;98776.41;5005669;28;20198;-55
2022/01/10 08:07:42;;;;;;;25.70;14.20;;;;;;;2.29;100.00;98783.00;5005276;28;20570;-54
2022/01/10 08:10:09;;;;;;;22.73;14.03;;;;;;;2.33;100.00;98788.78;5004181;28;20208;-59
2022/01/10 08:12:36;;;;;;;22.60;13.90;;;;;;;2.35;100.00;98805.81;5007837;28;20764;-54
2022/01/10 08:15:04;;;;;;;23.40;16.43;;;;;;;2.38;100.00;98806.56;5000178;28;20731;-48
2022/01/10 08:17:35;;;;;;;25.73;15.73;;;;;;;2.37;100.00;98805.72;5005040;28;20914;-54
2022/01/10 08:20:05;;;;;;;28.17;17.90;;;;;;;2.42;100.00;98808.84;5001918;28;20264;-51
2022/01/10 08:22:32;;;;;;;32.03;20.20;;;;;;;2.41;100.00;98811.53;5007775;28;20228;-55
2022/01/10 08:24:59;;;;;;;30.38;21.65;;;;;;;2.47;100.00;98824.03;5014854;28;20526;-53
2022/01/10 08:27:26;;;;;;;31.80;19.90;;;;;;;2.48;100.00;98826.50;5014856;28;20277;-52
2022/01/10 08:29:53;;;;;;;30.37;19.50;;;;;;;2.55;100.00;98829.53;5014538;28;20185;-54
2022/01/10 08:32:24;;;;;;;34.50;19.97;;;;;;;2.62;100.00;98835.13;5015702;28;20589;-53
2022/01/10 08:34:51;;;;;;;30.07;17.50;;;;;;;2.58;100.00;98838.81;5015589;28;20197;-52
2022/01/10 08:37:21;;;;;;;31.57;19.27;;;;;;;2.63;100.00;98842.78;5013676;28;20182;-55
2022/01/10 08:39:49;;;;;;;31.80;19.73;;;;;;;2.63;100.00;98847.09;5014260;28;20192;-55
2022/01/10 08:42:17;;;;;;;22.67;15.10;;;;;;;2.72;98.24;98850.84;5014720;28;20209;-54
2022/01/10 08:44:44;;;;;;;26.60;16.33;;;;;;;2.65;97.95;98855.56;5014703;28;20193;-58
2022/01/10 08:47:10;;;;;;;28.83;18.03;;;;;;;3.27;100.00;98866.34;5014950;28;20220;-52
2022/01/10 08:49:38;;;;;;;31.17;19.30;;;;;;;3.32;100.00;98866.88;5014749;28;20189;-53
2022/01/10 08:52:05;;;;;;;30.23;18.07;;;;;;;3.16;100.00;98877.38;5007633;28;20307;-51
2022/01/10 08:54:34;;;;;;;28.40;18.23;;;;;;;3.08;100.00;98873.50;5001479;28;20957;-50
2022/01/10 08:57:03;;;;;;;28.43;17.83;;;;;;;3.16;100.00;98875.59;5003462;28;20187;-49
2022/01/10 08:59:29;;;;;;;31.17;18.50;;;;;;;3.07;99.53;98883.91;5005831;28;20276;-58
2022/01/10 09:01:57;;;;;;;30.83;18.70;;;;;;;3.18;97.34;98881.47;5003792;28;20295;-51
2022/01/10 09:04:24;;;;;;;30.97;18.43;;;;;;;3.25;96.10;98884.50;5004873;28;20277;-51
2022/01/10 09:06:54;;;;;;;29.03;18.13;;;;;;;3.35;95.34;98887.31;5005197;28;20655;-55
2022/01/10 09:09:22;;;;;;;28.40;17.30;;;;;;;3.44;94.51;98889.31;5008491;28;20185;-55
2022/01/10 09:11:52;;;;;;;31.27;19.70;;;;;;;3.49;95.36;98897.59;5002812;28;20321;-58
2022/01/10 09:14:19;;;;;;;47.07;26.77;;;;;;;3.51;95.20;98893.16;5010247;28;20197;-56
2022/01/10 09:16:46;;;;;;;43.33;26.37;;;;;;;3.50;93.61;98901.81;5002992;28;20217;-56
2022/01/10 09:19:13;;;;;;;48.27;25.73;;;;;;;3.42;93.13;98904.06;5009730;28;20189;-56
2022/01/10 09:21:40;;;;;;;42.03;25.63;;;;;;;3.46;93.88;98913.28;5005960;28;20215;-54
2022/01/10 09:24:07;;;;;;;43.33;25.93;;;;;;;3.51;93.54;98910.38;5012025;28;20189;-52
2022/01/10 09:26:34;;;;;;;38.37;24.47;;;;;;;3.55;93.12;98909.25;5015665;28;20192;-51
2022/01/10 09:29:02;;;;;;;59.53;33.50;;;;;;;3.61;93.33;98910.63;5014367;28;20244;-57
2022/01/10 09:31:29;;;;;;;67.20;33.03;;;;;;;3.64;92.11;98919.00;5014007;28;20189;-58
2022/01/10 09:33:56;;;;;;;59.60;27.67;;;;;;;3.64;92.57;98921.56;5013764;28;20224;-56
2022/01/10 09:36:25;;;;;;;133.43;48.23;;;;;;;3.75;92.29;98926.03;5013624;28;20651;-57
2022/01/10 09:38:54;;;;;;;105.17;37.67;;;;;;;3.68;92.09;98932.53;5007341;28;20201;-52
2022/01/10 09:41:22;;;;;;;85.17;34.77;;;;;;;3.68;92.73;98938.53;4993764;28;20193;-50
2022/01/10 09:43:51;;;;;;;73.20;31.03;;;;;;;3.80;93.06;98943.81;4993876;28;20300;-52
2022/01/10 09:46:19;;;;;;;67.07;30.43;;;;;;;3.90;90.98;98944.03;4994121;28;20610;-53
2022/01/10 09:48:47;;;;;;;67.67;26.57;;;;;;;3.90;89.89;98952.63;4994280;28;20302;-55
2022/01/10 09:51:14;;;;;;;34.60;16.80;;;;;;;3.90;89.61;98951.78;4993349;28;20684;-53
2022/01/10 09:53:40;;;;;;;37.13;19.50;;;;;;;4.00;90.06;98945.09;4993394;28;20303;-55
2022/01/10 09:56:07;;;;;;;25.90;14.07;;;;;;;4.11;89.80;98952.97;4993746;28;20193;-53
2022/01/10 09:58:34;;;;;;;26.90;14.70;;;;;;;4.24;87.83;98947.78;4993246;28;20186;-52
2022/01/10 10:01:01;;;;;;;34.37;17.27;;;;;;;4.29;86.89;98952.69;4992819;28;20204;-54
2022/01/10 10:03:30;;;;;;;33.63;19.63;;;;;;;4.22;87.12;98956.59;4993281;28;20262;-53
2022/01/10 10:05:59;;;;;;;28.10;17.83;;;;;;;4.10;87.99;98958.25;4994070;28;20244;-53
2022/01/10 10:08:28;;;;;;;26.70;18.00;;;;;;;4.05;91.09;98966.28;4994017;28;20236;-50
2022/01/10 10:10:57;;;;;;;25.10;16.27;;;;;;;4.22;90.42;98969.50;4993101;28;20678;-50
2022/01/10 10:13:25;;;;;;;25.93;16.90;;;;;;;4.14;88.91;98967.44;4993867;28;20267;-56
2022/01/10 10:15:52;;;;;;;22.10;14.47;;;;;;;4.06;87.94;98972.28;4993696;28;20195;-56
2022/01/10 10:18:20;;;;;;;19.10;11.00;;;;;;;3.99;87.79;98971.84;4992930;28;20188;-55
2022/01/10 10:20:48;;;;;;;21.53;13.73;;;;;;;3.87;89.79;98980.38;4995141;28;20196;-54
2022/01/10 10:23:18;;;;;;;25.27;14.17;;;;;;;3.93;89.63;98985.16;5013006;28;20231;-56
2022/01/10 10:25:53;;;;;;;20.07;12.83;;;;;;;3.87;89.95;98986.41;5013055;28;20220;-51
2022/01/10 10:28:21;;;;;;;24.07;14.63;;;;;;;3.88;89.88;98985.47;5012365;28;20232;-54
2022/01/10 10:30:47;;;;;;;24.60;15.97;;;;;;;3.92;92.46;98984.34;5011781;28;20648;-53
2022/01/10 10:33:16;;;;;;;29.43;17.77;;;;;;;3.90;92.26;98987.94;5012402;28;20212;-52
2022/01/10 10:35:44;;;;;;;28.07;16.70;;;;;;;3.96;92.04;98987.53;5012413;28;20197;-51
2022/01/10 10:38:12;;;;;;;31.27;19.97;;;;;;;4.04;91.92;98993.03;5012633;28;20675;-55
2022/01/10 10:40:41;;;;;;;25.47;16.50;;;;;;;4.10;91.41;98997.00;5011838;28;20191;-55
2022/01/10 10:43:09;;;;;;;29.00;15.50;;;;;;;3.97;91.56;98995.22;5012314;28;20709;-54
2022/01/10 10:45:37;;;;;;;27.80;15.40;;;;;;;3.97;91.77;98997.78;5012222;28;20192;-52
2022/01/10 10:48:08;;;;;;;32.07;18.17;;;;;;;3.94;92.12;98998.00;5009651;28;20290;-51
2022/01/10 10:50:41;;;;;;;29.83;16.70;;;;;;;4.12;90.61;98998.53;5000353;28;20192;-52
2022/01/10 10:53:10;;;;;;;31.43;20.40;;;;;;;4.23;90.21;98997.00;4993666;28;20312;-52
2022/01/10 10:55:39;;;;;;;25.87;13.40;;;;;;;4.28;90.02;99008.69;5002762;28;20300;-54
2022/01/10 10:58:07;;;;;;;23.87;13.40;;;;;;;4.13;89.26;99009.72;5017994;28;20199;-55
2022/01/10 11:00:34;;;;;;;26.50;13.73;;;;;;;4.16;90.56;99013.84;4989260;28;20197;-52
2022/01/10 11:03:01;;;;;;;25.27;14.07;;;;;;;4.07;90.99;99018.69;5008057;28;20573;-51
2022/01/10 11:05:29;;;;;;;23.73;13.87;;;;;;;4.15;90.10;99023.38;5009796;28;20197;-54
2022/01/10 11:07:58;;;;;;;22.87;12.40;;;;;;;4.32;89.82;99021.41;4998305;28;20216;-54
2022/01/10 11:10:25;;;;;;;21.47;13.43;;;;;;;4.19;89.30;99030.00;4999292;28;20198;-53
2022/01/10 11:12:55;;;;;;;24.53;13.17;;;;;;;4.24;90.52;99024.50;4999110;28;20268;-52
2022/01/10 11:15:24;;;;;;;22.00;12.93;;;;;;;4.25;89.31;99032.16;4999827;28;20185;-51
2022/01/10 11:17:53;;;;;;;24.50;12.67;;;;;;;4.41;90.13;99039.75;5011480;28;20655;-53
2022/01/10 11:20:23;;;;;;;22.70;12.27;;;;;;;4.38;89.57;99049.44;5010791;28;20185;-51
2022/01/10 11:22:51;;;;;;;24.07;13.80;;;;;;;4.39;89.90;99044.19;5010539;28;20212;-53
2022/01/10 11:25:24;;;;;;;23.97;13.97;;;;;;;4.56;88.89;99048.22;5010703;28;20189;-53
2022/01/10 11:27:57;;;;;;;25.20;13.20;;;;;;;4.65;88.93;99045.97;5011213;28;20644;-51
2022/01/10 11:30:31;;;;;;;27.57;14.83;;;;;;;4.69;88.57;99050.84;5010807;28;20196;-55
2022/01/10 11:33:03;;;;;;;15.23;5.50;;;;;;;4.70;82.78;99043.88;5010979;28;20617;-51